Belew Creek, North Carolina
Current Conditions -  °F | °C
As of 9:54 AM on Monday 24 Nov 2014 (Local Time) from KINT Reporting Station
Broken Clouds Broken Clouds  
Wind Chill: 63°   Ceiling: 2300
Heat Index: 63°   Visibility: 10mi
Dew Point: 54°   Wind: 9mph
Humidity: 72%   Direction: 210°SSW
Pressure: 29.78"   Gusts: 20mph
Location:  36.2283°N, 80.0849°W
Report Text: KINT 241454Z 21008G17KT 10SM BKN023 17/12 A2978 RMK AO2 SLP078 T01720122 51008
Loading
Personal Weather Stations






























Interactive Weather Map New forecast layout! Learn more

10-Day Weather Forecast

Advertisements
Track Severe Weather on mobile